Oconto, WI

2:05 PM CST on December 11, 2017 (GMT -0600)
Oconto Municipal

Weather History for KOCQ - May, 2013

Change the Weather History Date:

Wednesday, May 1, 2013

  Actual Average Record
Temperature  
Mean Temperature 56 °F -  
Max Temperature 68 °F 60 °F 70 °F (2015)
Min Temperature 44 °F 37 °F 29 °F (2015)
Degree Days  
Heating Degree Days 10    
Growing Degree Days 6 (Base 50)    
Moisture  
Dew Point 45 °F    
Average Humidity 61    
Maximum Humidity 84    
Minimum Humidity 45    
Precipitation  
Precipitation 0.00 in - - ()
Sea Level Pressure  
Sea Level Pressure 30.11 in    
Wind  
Wind Speed 7 mph (NE)    
Max Wind Speed 15 mph    
Max Gust Speed 23 mph    
Visibility 10 miles    
Events      
Averages and records for this station are not official NWS values.
T = Trace of Precipitation, MM = Missing Value Source: NWS Daily Summary

Daily Weather History Graph

Daily Weather History Graph

Search for Another Location

Airport or City:

Trip Planner

Search our weather history database for the weather conditions in past years. The results will help you decide how hot, cold, wet, or windy it might be!

Date:

Astronomy

May. 01, 2013 Rise Set
Actual Time 5:40 AM CDT 7:57 PM CDT
Civil Twilight 5:08 AM CDT 8:29 PM CDT
Nautical Twilight 4:28 AM CDT 9:09 PM CDT
Astronomical Twilight 3:43 AM CDT 9:54 PM CDT
Moon 1:07 AM CDT (5/1) 11:18 AM CDT (5/1)
Length of Visible Light 15h 21m
Length of Day
14h 16m
Waning Gibbous, 59% of the Moon is Illuminated
May 1
Waning Gibbous
May 2
Last Quarter
May 9
New
May 17
First Quarter
May 24
Full

Hourly Weather History & Observations

Time (CDT) Temp. Windchill Dew Point Humidity Pressure Visibility Wind Dir Wind Speed Gust Speed Precip Events Conditions
12:15 AM 66.0 °F - 51.4 °F 59% 29.85 in 10.0 mi Calm Calm - N/A   Scattered Clouds
12:35 AM 67.3 °F - 50.9 °F 56% 29.86 in 10.0 mi North 10.4 mph - N/A   Clear
12:55 AM 66.6 °F - 48.6 °F 52% 29.89 in 10.0 mi NW 9.2 mph 16.1 mph N/A   Clear
1:15 AM 64.4 °F - 46.4 °F 52% 29.92 in 10.0 mi NNW 12.7 mph 16.1 mph N/A   Clear
1:35 AM 63.3 °F - 44.8 °F 51% 29.93 in 10.0 mi NNW 10.4 mph - N/A   Clear
1:55 AM 61.9 °F - 45.3 °F 55% 29.94 in 10.0 mi North 6.9 mph - N/A   Clear
2:15 AM 61.2 °F - 46.6 °F 59% 29.94 in 10.0 mi NNW 4.6 mph - N/A   Clear
2:35 AM 60.3 °F - 47.1 °F 62% 29.94 in 10.0 mi North 4.6 mph - N/A   Clear
3:15 AM 58.5 °F - 46.9 °F 66% 29.95 in 10.0 mi Calm Calm - N/A   Clear
3:35 AM 55.8 °F - 47.1 °F 73% 29.96 in 10.0 mi Calm Calm - N/A   Clear
3:55 AM 55.8 °F - 47.8 °F 75% 29.97 in 10.0 mi Calm Calm - N/A   Clear
4:15 AM 53.4 °F - 47.3 °F 80% 29.99 in 10.0 mi Calm Calm - N/A   Clear
4:35 AM 52.9 °F - 47.3 °F 81% 29.99 in 10.0 mi Calm Calm - N/A   Clear
4:55 AM 52.5 °F - 47.7 °F 84% 29.99 in 10.0 mi Calm Calm - N/A   Clear
5:15 AM 53.1 °F - 47.7 °F 82% 30.00 in 10.0 mi Calm Calm - N/A   Clear
5:35 AM 54.0 °F - 47.8 °F 80% 30.02 in 10.0 mi North 3.5 mph - N/A   Clear
5:55 AM 54.9 °F - 46.8 °F 74% 30.04 in 10.0 mi NW 5.8 mph - N/A   Clear
6:15 AM 55.4 °F - 47.3 °F 74% 30.04 in 10.0 mi North 4.6 mph - N/A   Clear
6:35 AM 55.0 °F - 47.7 °F 76% 30.06 in 10.0 mi North 6.9 mph - N/A   Clear
6:55 AM 55.6 °F - 47.7 °F 75% 30.06 in 10.0 mi North 3.5 mph - N/A   Clear
7:15 AM 56.8 °F - 48.0 °F 72% 30.06 in 10.0 mi NNW 5.8 mph - N/A   Clear
7:35 AM 57.7 °F - 48.6 °F 71% 30.07 in 10.0 mi NNW 8.1 mph - N/A   Clear
8:15 AM 59.5 °F - 48.2 °F 66% 30.07 in 10.0 mi North 4.6 mph - N/A   Clear
8:35 AM 61.0 °F - 47.5 °F 61% 30.08 in 10.0 mi NE 9.2 mph - N/A   Clear
8:55 AM 61.9 °F - 47.7 °F 60% 30.09 in 10.0 mi North 6.9 mph - N/A   Clear
9:15 AM 62.2 °F - 47.8 °F 59% 30.09 in 10.0 mi NNW 6.9 mph - N/A   Clear
9:35 AM 63.0 °F - 48.4 °F 59% 30.09 in 10.0 mi North 6.9 mph - N/A   Clear
10:15 AM 64.6 °F - 48.9 °F 57% 30.11 in 10.0 mi North 8.1 mph - N/A   Clear
10:35 AM 65.3 °F - 49.1 °F 56% 30.11 in 10.0 mi NNE 8.1 mph - N/A   Scattered Clouds
10:55 AM 65.5 °F - 49.3 °F 56% 30.11 in 10.0 mi NNE 9.2 mph - N/A   Clear
11:15 AM 63.3 °F - 48.2 °F 58% 30.11 in 10.0 mi ESE 9.2 mph - N/A   Clear
11:35 AM 62.6 °F - 48.0 °F 59% 30.11 in 10.0 mi East 10.4 mph - N/A   Scattered Clouds
11:55 AM 62.2 °F - 47.8 °F 59% 30.12 in 10.0 mi East 9.2 mph - N/A   Scattered Clouds
12:15 PM 63.1 °F - 48.7 °F 59% 30.12 in 10.0 mi East 6.9 mph - N/A   Clear
12:35 PM 62.4 °F - 46.4 °F 56% 30.12 in 10.0 mi East 10.4 mph - N/A   Clear
12:55 PM 63.9 °F - 47.1 °F 54% 30.12 in 10.0 mi East 11.5 mph - N/A   Clear
1:15 PM 64.8 °F - 48.0 °F 55% 30.13 in 10.0 mi ENE 11.5 mph 17.3 mph N/A   Clear
1:35 PM 64.8 °F - 46.9 °F 52% 30.14 in 10.0 mi East 12.7 mph 18.4 mph N/A   Scattered Clouds
1:55 PM 66.0 °F - 46.9 °F 50% 30.14 in 10.0 mi ENE 12.7 mph 19.6 mph N/A   Scattered Clouds
2:15 PM 66.6 °F - 46.0 °F 48% 30.14 in 10.0 mi ENE 12.7 mph 16.1 mph N/A   Scattered Clouds
2:35 PM 67.6 °F - 45.3 °F 45% 30.15 in 10.0 mi East 13.8 mph 17.3 mph N/A   Scattered Clouds
2:55 PM 67.3 °F - 45.0 °F 45% 30.16 in 10.0 mi East 10.4 mph 17.3 mph N/A   Mostly Cloudy
3:15 PM 65.5 °F - 45.0 °F 47% 30.16 in 10.0 mi East 10.4 mph 16.1 mph N/A   Overcast
3:35 PM 66.4 °F - 45.3 °F 47% 30.16 in 10.0 mi East 10.4 mph - N/A   Overcast
4:15 PM 65.8 °F - 44.8 °F 47% 30.17 in 10.0 mi East 12.7 mph 17.3 mph N/A   Scattered Clouds
4:35 PM 64.0 °F - 42.4 °F 45% 30.17 in 10.0 mi ENE 12.7 mph 20.7 mph N/A   Mostly Cloudy
4:55 PM 62.6 °F - 42.3 °F 47% 30.18 in 10.0 mi ENE 11.5 mph 18.4 mph N/A   Mostly Cloudy
5:15 PM 59.9 °F - 40.8 °F 49% 30.18 in 10.0 mi East 11.5 mph 21.9 mph N/A   Scattered Clouds
5:35 PM 58.1 °F - 39.6 °F 50% 30.19 in 10.0 mi ENE 12.7 mph 23.0 mph N/A   Mostly Cloudy
6:15 PM 56.3 °F - 40.5 °F 55% 30.20 in 10.0 mi ENE 9.2 mph - N/A   Overcast
6:35 PM 55.4 °F - 39.4 °F 55% 30.21 in 10.0 mi ENE 12.7 mph 19.6 mph N/A   Overcast
6:55 PM 54.1 °F - 39.6 °F 58% 30.21 in 10.0 mi ENE 10.4 mph 16.1 mph N/A   Overcast
7:15 PM 52.7 °F - 39.0 °F 60% 30.22 in 10.0 mi ENE 10.4 mph 23.0 mph N/A   Overcast
7:35 PM 52.2 °F - 39.2 °F 61% 30.22 in 10.0 mi ENE 11.5 mph 16.1 mph N/A   Overcast
7:55 PM 52.2 °F - 38.7 °F 60% 30.22 in 10.0 mi ENE 10.4 mph 17.3 mph N/A   Overcast
8:35 PM 50.2 °F - 38.7 °F 65% 30.24 in 10.0 mi ENE 9.2 mph - N/A   Mostly Cloudy
8:55 PM 49.6 °F - 39.2 °F 67% 30.27 in 10.0 mi NE 5.8 mph - N/A   Mostly Cloudy
9:35 PM 50.0 °F - 38.1 °F 64% 30.29 in 10.0 mi NE 9.2 mph - N/A   Overcast
9:55 PM 50.0 °F - 36.9 °F 61% 30.30 in 10.0 mi NNE 15.0 mph 21.9 mph N/A   Mostly Cloudy
10:15 PM 49.3 °F - 36.0 °F 60% 30.31 in 10.0 mi NNE 11.5 mph 20.7 mph N/A   Scattered Clouds
10:35 PM 48.4 °F - 36.1 °F 63% 30.31 in 10.0 mi NNE 8.1 mph 16.1 mph N/A   Scattered Clouds
10:55 PM 47.8 °F - 36.5 °F 65% 30.31 in 10.0 mi NE 11.5 mph - N/A   Clear
11:15 PM 46.6 °F - 35.8 °F 66% 30.31 in 10.0 mi North 10.4 mph - N/A   Scattered Clouds
11:35 PM 44.8 °F 39.4 °F 34.3 °F 67% 30.32 in 10.0 mi North 10.4 mph - N/A   Scattered Clouds
11:55 PM 44.1 °F 38.1 °F 33.8 °F 67% 30.32 in 10.0 mi North 11.5 mph 16.1 mph N/A   Scattered Clouds